createdAt,value
2022-11-20T00:00:39.616Z,78.53
2022-11-20T00:01:41.438Z,77.52
2022-11-20T00:02:42.912Z,78.15
2022-11-20T00:03:44.848Z,77.75
2022-11-20T00:04:46.253Z,77.93
2022-11-20T00:05:48.073Z,78.01
2022-11-20T00:06:49.551Z,78.37
2022-11-20T00:07:50.973Z,78.76
2022-11-20T00:08:56.449Z,77.61
2022-11-20T00:09:57.875Z,77.80
2022-11-20T00:11:23.878Z,77.56
2022-11-20T00:12:25.299Z,77.88
2022-11-20T00:13:26.745Z,77.08
2022-11-20T00:14:28.190Z,77.10
2022-11-20T00:15:29.674Z,77.96
2022-11-20T00:16:33.818Z,78.11
2022-11-20T00:17:35.232Z,77.60
2022-11-20T00:18:37.706Z,77.17
2022-11-20T00:19:39.128Z,77.80
2022-11-20T00:20:40.685Z,77.11
2022-11-20T00:21:42.191Z,76.74
2022-11-20T00:22:43.729Z,77.19
2022-11-20T00:23:46.459Z,77.13
2022-11-20T00:24:47.878Z,76.92
2022-11-20T00:25:49.277Z,76.75
2022-11-20T00:26:50.927Z,77.11
2022-11-20T00:27:52.336Z,76.80
2022-11-20T00:28:59.211Z,77.68
2022-11-20T00:30:00.751Z,76.76
2022-11-20T00:31:13.951Z,76.61
2022-11-20T00:32:15.369Z,77.32
2022-11-20T00:33:17.291Z,77.40
2022-11-20T00:34:18.835Z,77.35
2022-11-20T00:35:20.271Z,76.55
2022-11-20T00:36:24.121Z,77.18
2022-11-20T00:37:25.833Z,77.10
2022-11-20T00:38:27.629Z,76.19
2022-11-20T00:39:29.127Z,77.28
2022-11-20T00:40:30.582Z,77.15
2022-11-20T00:41:32.167Z,77.39
2022-11-20T00:42:33.911Z,77.57
2022-11-20T00:43:35.728Z,77.30
2022-11-20T00:44:37.134Z,76.95
2022-11-20T00:45:38.646Z,77.88
2022-11-20T00:46:40.079Z,78.28
2022-11-20T00:47:41.482Z,78.02
2022-11-20T00:48:43.781Z,77.64
2022-11-20T00:49:45.254Z,77.53
2022-11-20T00:50:46.668Z,77.86
2022-11-20T00:51:48.135Z,78.27
2022-11-20T00:52:49.906Z,77.66
2022-11-20T00:53:51.563Z,78.10
2022-11-20T00:54:53.004Z,77.99
2022-11-20T00:55:55.793Z,77.81
2022-11-20T00:56:57.231Z,77.96
2022-11-20T00:58:02.417Z,78.13
2022-11-20T00:59:05.778Z,77.76
2022-11-20T01:00:07.733Z,77.78
2022-11-20T01:01:21.372Z,77.30
2022-11-20T01:02:22.861Z,76.62
2022-11-20T01:03:27.204Z,76.64
2022-11-20T01:04:28.806Z,77.11
2022-11-20T01:05:30.266Z,77.17
2022-11-20T01:06:34.013Z,77.28
2022-11-20T01:07:35.476Z,77.93
2022-11-20T01:08:37.623Z,77.34
2022-11-20T01:09:39.128Z,77.51
2022-11-20T01:10:40.558Z,77.72
2022-11-20T01:11:44.231Z,77.97
2022-11-20T01:13:05.928Z,77.38
2022-11-20T01:14:11.361Z,77.42
2022-11-20T01:15:12.781Z,77.11
2022-11-20T01:16:15.686Z,77.52
2022-11-20T01:17:17.178Z,77.68
2022-11-20T01:18:19.030Z,77.60
2022-11-20T01:19:23.395Z,77.86
2022-11-20T01:20:25.193Z,76.64
2022-11-20T01:21:37.933Z,76.95
2022-11-20T01:22:40.580Z,76.90
2022-11-20T01:23:43.995Z,77.32
2022-11-20T01:24:45.426Z,77.61
2022-11-20T01:25:46.870Z,77.57
2022-11-20T01:26:50.673Z,77.47
2022-11-20T01:27:52.537Z,77.68
2022-11-20T01:28:55.147Z,78.33
2022-11-20T01:30:00.990Z,77.96
2022-11-20T01:31:13.092Z,78.02
2022-11-20T01:32:14.554Z,78.15
2022-11-20T01:33:16.267Z,77.76
2022-11-20T01:34:19.324Z,77.56
2022-11-20T01:35:20.981Z,77.77
2022-11-20T01:36:24.105Z,77.66
2022-11-20T01:37:25.859Z,77.80
2022-11-20T01:38:27.267Z,77.92
2022-11-20T01:39:28.913Z,77.86
2022-11-20T01:40:30.335Z,77.99
2022-11-20T01:41:52.156Z,77.77
2022-11-20T01:43:23.244Z,77.54
2022-11-20T01:44:46.683Z,77.92
2022-11-20T01:46:00.286Z,77.95
2022-11-20T01:47:05.832Z,78.25
2022-11-20T01:48:07.395Z,78.48
2022-11-20T01:49:08.797Z,78.03
2022-11-20T01:50:16.414Z,77.88
2022-11-20T01:51:33.704Z,77.64
2022-11-20T01:52:43.524Z,77.65
2022-11-20T01:53:45.394Z,78.27
2022-11-20T01:55:21.758Z,78.11
2022-11-20T01:56:23.962Z,78.93
2022-11-20T01:57:29.249Z,78.24
2022-11-20T01:58:35.349Z,78.56
2022-11-20T01:59:42.587Z,78.39
2022-11-20T02:00:44.065Z,78.59
2022-11-20T02:01:45.706Z,77.86
2022-11-20T02:02:52.795Z,78.24
2022-11-20T02:03:54.609Z,78.30
2022-11-20T02:05:01.949Z,78.08
2022-11-20T02:06:15.288Z,78.17
2022-11-20T02:07:17.571Z,78.32
2022-11-20T02:08:20.997Z,77.92
2022-11-20T02:09:22.641Z,78.45
2022-11-20T02:10:24.919Z,78.66
2022-11-20T02:11:26.341Z,77.96
2022-11-20T02:12:46.483Z,77.92
2022-11-20T02:13:49.254Z,77.68
2022-11-20T02:14:50.678Z,77.96
2022-11-20T02:15:52.686Z,77.54
2022-11-20T02:16:56.211Z,78.40
2022-11-20T02:17:58.024Z,78.29
2022-11-20T02:19:02.664Z,78.15
2022-11-20T02:20:05.343Z,78.06
2022-11-20T02:21:50.071Z,77.60
2022-11-20T02:23:20.751Z,77.95
2022-11-20T02:24:23.488Z,78.70
2022-11-20T02:25:26.598Z,78.13
2022-11-20T02:26:28.851Z,78.55
2022-11-20T02:27:30.524Z,78.81
2022-11-20T02:28:32.657Z,78.38
2022-11-20T02:29:39.219Z,78.77
2022-11-20T02:30:40.644Z,78.12
2022-11-20T02:31:44.311Z,77.85
2022-11-20T02:32:45.820Z,77.62
2022-11-20T02:33:47.643Z,77.59
2022-11-20T02:34:49.371Z,78.09
2022-11-20T02:35:50.774Z,77.95
2022-11-20T02:36:53.774Z,77.98
2022-11-20T02:37:55.760Z,77.97
2022-11-20T02:38:57.558Z,78.10
2022-11-20T02:39:58.992Z,78.10
2022-11-20T02:41:00.415Z,77.86
2022-11-20T02:42:02.121Z,78.02
2022-11-20T02:43:03.885Z,78.51
2022-11-20T02:44:05.833Z,77.72
2022-11-20T02:45:08.404Z,78.45
2022-11-20T02:46:10.233Z,78.77
2022-11-20T02:47:11.775Z,78.83
2022-11-20T02:48:13.237Z,78.65
2022-11-20T02:49:14.648Z,78.75
2022-11-20T02:50:16.195Z,78.42
2022-11-20T02:51:17.645Z,79.08
2022-11-20T02:52:19.080Z,78.47
2022-11-20T02:53:20.506Z,78.47
2022-11-20T02:54:21.937Z,77.98
2022-11-20T02:55:23.446Z,78.77
2022-11-20T02:56:25.371Z,79.23
2022-11-20T02:57:27.173Z,79.63
2022-11-20T02:58:28.927Z,79.57
2022-11-20T02:59:30.421Z,79.00
2022-11-20T03:00:32.943Z,78.77
2022-11-20T03:01:34.724Z,78.82
2022-11-20T03:02:36.202Z,78.55
2022-11-20T03:03:37.991Z,78.00
2022-11-20T03:04:39.719Z,78.55
2022-11-20T03:05:41.115Z,78.55
2022-11-20T03:06:42.553Z,78.34
2022-11-20T03:07:45.130Z,79.10
2022-11-20T03:08:46.976Z,78.95
2022-11-20T03:09:48.385Z,78.45
2022-11-20T03:10:49.802Z,78.17
2022-11-20T03:11:51.378Z,78.00
2022-11-20T03:12:57.292Z,77.79
2022-11-20T03:14:05.261Z,77.84
2022-11-20T03:15:07.075Z,77.67
2022-11-20T03:16:11.611Z,77.27
2022-11-20T03:17:13.081Z,77.31
2022-11-20T03:18:15.109Z,77.32
2022-11-20T03:19:16.611Z,77.82
2022-11-20T03:20:18.025Z,77.52
2022-11-20T03:21:19.582Z,78.07
2022-11-20T03:22:21.007Z,78.04
2022-11-20T03:23:22.731Z,78.65
2022-11-20T03:24:24.224Z,77.96
2022-11-20T03:25:25.674Z,77.81
2022-11-20T03:26:28.228Z,78.43
2022-11-20T03:27:34.083Z,77.98
2022-11-20T03:28:35.887Z,78.11
2022-11-20T03:29:37.362Z,78.60
2022-11-20T03:30:38.796Z,78.01
2022-11-20T03:31:41.930Z,78.30
2022-11-20T03:32:43.609Z,78.17
2022-11-20T03:33:45.050Z,77.82
2022-11-20T03:34:46.487Z,78.11
2022-11-20T03:35:47.914Z,78.52
2022-11-20T03:36:49.446Z,78.46
2022-11-20T03:37:51.223Z,78.31
2022-11-20T03:38:54.680Z,78.46
2022-11-20T03:39:56.201Z,78.66
2022-11-20T03:41:05.880Z,78.78
2022-11-20T03:42:27.275Z,78.69
2022-11-20T03:43:29.436Z,79.00
2022-11-20T03:44:30.851Z,78.94
2022-11-20T03:45:32.286Z,78.85
2022-11-20T03:46:34.098Z,79.06
2022-11-20T03:47:35.548Z,78.97
2022-11-20T03:48:37.531Z,79.32
2022-11-20T03:49:39.003Z,78.93
2022-11-20T03:50:40.429Z,78.74
2022-11-20T03:51:41.870Z,78.97
2022-11-20T03:52:43.431Z,79.37
2022-11-20T03:53:47.206Z,79.18
2022-11-20T03:54:48.647Z,78.98
2022-11-20T03:55:53.135Z,78.84
2022-11-20T03:56:54.553Z,78.93
2022-11-20T03:57:56.355Z,78.86
2022-11-20T03:58:58.556Z,78.98
2022-11-20T04:00:00.108Z,78.80
2022-11-20T04:01:07.074Z,78.81
2022-11-20T04:02:08.538Z,78.28
2022-11-20T04:03:10.376Z,78.53
2022-11-20T04:04:11.821Z,78.15
2022-11-20T04:05:13.334Z,78.82
2022-11-20T04:06:27.144Z,78.76
2022-11-20T04:07:28.967Z,78.92
2022-11-20T04:08:31.511Z,79.35
2022-11-20T04:09:32.947Z,79.01
2022-11-20T04:10:34.751Z,79.37
2022-11-20T04:11:40.261Z,79.38
2022-11-20T04:12:42.156Z,78.74
2022-11-20T04:13:47.366Z,79.41
2022-11-20T04:14:48.830Z,79.20
2022-11-20T04:15:50.248Z,79.21
2022-11-20T04:16:51.970Z,79.13
2022-11-20T04:17:55.187Z,78.99
2022-11-20T04:18:58.723Z,79.23
2022-11-20T04:20:00.230Z,78.76
2022-11-20T04:21:01.814Z,78.76
2022-11-20T04:22:03.711Z,78.82
2022-11-20T04:23:05.173Z,79.09
2022-11-20T04:24:07.126Z,78.93
2022-11-20T04:25:09.229Z,78.99
2022-11-20T04:26:12.779Z,79.28
2022-11-20T04:27:14.531Z,79.53
2022-11-20T04:28:15.970Z,79.44
2022-11-20T04:29:17.407Z,79.50
2022-11-20T04:30:18.831Z,79.41
2022-11-20T04:31:26.334Z,79.28
2022-11-20T04:32:28.187Z,79.04
2022-11-20T04:33:33.877Z,78.89
2022-11-20T04:34:35.754Z,79.15
2022-11-20T04:35:38.235Z,78.83
2022-11-20T04:36:39.712Z,79.62
2022-11-20T04:37:41.542Z,79.09
2022-11-20T04:38:43.540Z,79.11
2022-11-20T04:39:45.054Z,78.91
2022-11-20T04:40:46.463Z,79.30
2022-11-20T04:41:47.898Z,79.48
2022-11-20T04:42:49.651Z,79.39
2022-11-20T04:43:53.973Z,79.52
2022-11-20T04:44:56.326Z,79.38
2022-11-20T04:45:59.307Z,79.05
2022-11-20T04:47:00.703Z,79.20
2022-11-20T04:48:02.142Z,78.91
2022-11-20T04:49:04.113Z,79.35
2022-11-20T04:50:06.119Z,79.28
2022-11-20T04:51:07.695Z,79.71
2022-11-20T04:52:09.148Z,79.28
2022-11-20T04:53:10.912Z,79.52
2022-11-20T04:54:12.353Z,79.01
2022-11-20T04:55:14.407Z,79.31
2022-11-20T04:56:16.407Z,78.96
2022-11-20T04:57:18.138Z,79.20
2022-11-20T04:58:19.551Z,79.82
2022-11-20T04:59:21.259Z,80.20
2022-11-20T05:00:23.146Z,80.28
2022-11-20T05:01:25.779Z,79.54
2022-11-20T05:02:27.593Z,79.66
2022-11-20T05:03:29.021Z,79.55
2022-11-20T05:04:30.419Z,80.20
2022-11-20T05:05:32.328Z,79.69
2022-11-20T05:06:33.843Z,79.65
2022-11-20T05:07:35.592Z,79.54
2022-11-20T05:08:37.102Z,79.62
2022-11-20T05:09:38.653Z,79.53
2022-11-20T05:10:40.073Z,79.53
2022-11-20T05:11:41.563Z,79.61
2022-11-20T05:12:43.306Z,79.21
2022-11-20T05:13:44.875Z,79.66
2022-11-20T05:14:46.462Z,79.50
2022-11-20T05:15:48.138Z,79.60
2022-11-20T05:16:49.608Z,79.53
2022-11-20T05:17:52.695Z,79.62
2022-11-20T05:18:55.880Z,79.38
2022-11-20T05:19:57.429Z,79.43
2022-11-20T05:20:59.422Z,79.65
2022-11-20T05:22:01.286Z,79.23
2022-11-20T05:23:02.930Z,79.77
2022-11-20T05:24:05.506Z,79.31
2022-11-20T05:25:07.272Z,79.60
2022-11-20T05:26:13.601Z,79.98
2022-11-20T05:27:15.039Z,79.98
2022-11-20T05:28:16.466Z,80.02
2022-11-20T05:29:17.987Z,79.85
2022-11-20T05:30:19.579Z,79.98
2022-11-20T05:31:27.812Z,79.95
2022-11-20T05:32:30.210Z,79.96
2022-11-20T05:33:31.598Z,80.08
2022-11-20T05:34:33.089Z,79.58
2022-11-20T05:35:34.526Z,79.56
2022-11-20T05:36:36.173Z,79.92
2022-11-20T05:37:37.976Z,79.68
2022-11-20T05:38:39.975Z,79.78
2022-11-20T05:39:41.413Z,79.63
2022-11-20T05:40:42.849Z,79.92
2022-11-20T05:41:44.298Z,80.18
2022-11-20T05:42:46.142Z,80.32
2022-11-20T05:43:49.178Z,79.76
2022-11-20T05:44:50.510Z,79.59
2022-11-20T05:45:55.625Z,80.10
2022-11-20T05:46:57.060Z,79.87
2022-11-20T05:48:00.644Z,79.89
2022-11-20T05:49:02.130Z,80.03
2022-11-20T05:50:03.860Z,79.91
2022-11-20T05:51:08.157Z,80.17
2022-11-20T05:52:09.633Z,79.74
2022-11-20T05:53:11.406Z,80.56
2022-11-20T05:54:12.828Z,80.59
2022-11-20T05:55:14.302Z,79.80
2022-11-20T05:56:18.589Z,80.00
2022-11-20T05:57:20.348Z,80.13
2022-11-20T05:58:21.780Z,80.23
2022-11-20T05:59:23.389Z,80.50
2022-11-20T06:00:25.111Z,80.12
2022-11-20T06:01:26.972Z,80.13
2022-11-20T06:02:28.804Z,80.05
2022-11-20T06:03:30.249Z,79.94
2022-11-20T06:04:31.717Z,80.03
2022-11-20T06:05:34.633Z,79.59
2022-11-20T06:06:36.041Z,80.00
2022-11-20T06:07:37.899Z,80.43
2022-11-20T06:08:39.398Z,80.28
2022-11-20T06:09:40.876Z,80.86
2022-11-20T06:10:42.349Z,80.60
2022-11-20T06:11:43.752Z,80.45
2022-11-20T06:12:45.237Z,80.59
2022-11-20T06:13:47.261Z,80.39
2022-11-20T06:14:48.686Z,80.24
2022-11-20T06:15:54.524Z,79.90
2022-11-20T06:16:56.334Z,80.48
2022-11-20T06:17:57.794Z,80.63
2022-11-20T06:18:59.235Z,79.67
2022-11-20T06:20:00.948Z,79.77
2022-11-20T06:21:06.940Z,80.22
2022-11-20T06:22:08.658Z,80.07
2022-11-20T06:23:10.063Z,80.10
2022-11-20T06:24:11.911Z,80.00
2022-11-20T06:25:13.506Z,80.00
2022-11-20T06:26:16.466Z,80.40
2022-11-20T06:27:18.396Z,80.57
2022-11-20T06:28:19.843Z,80.17
2022-11-20T06:29:21.477Z,79.80
2022-11-20T06:30:23.103Z,79.86
2022-11-20T06:31:26.602Z,80.54
2022-11-20T06:32:28.011Z,80.12
2022-11-20T06:33:29.910Z,80.29
2022-11-20T06:34:31.376Z,80.46
2022-11-20T06:35:32.825Z,80.50
2022-11-20T06:36:34.716Z,80.68
2022-11-20T06:37:36.117Z,80.51
2022-11-20T06:38:38.467Z,79.77
2022-11-20T06:39:39.875Z,79.80
2022-11-20T06:40:42.580Z,80.78
2022-11-20T06:41:44.298Z,80.59
2022-11-20T06:42:45.996Z,80.63
2022-11-20T06:43:48.247Z,80.29
2022-11-20T06:44:49.653Z,80.42
2022-11-20T06:45:55.155Z,80.88
2022-11-20T06:46:56.874Z,80.71
2022-11-20T06:47:59.248Z,80.19
2022-11-20T06:49:00.885Z,80.49
2022-11-20T06:50:02.419Z,79.95
2022-11-20T06:51:06.028Z,80.52
2022-11-20T06:52:07.472Z,80.48
2022-11-20T06:53:08.885Z,80.54
2022-11-20T06:54:10.303Z,80.06
2022-11-20T06:55:11.744Z,80.27
2022-11-20T06:56:13.248Z,80.32
2022-11-20T06:57:14.777Z,80.00
2022-11-20T06:58:17.270Z,80.32
2022-11-20T06:59:18.851Z,79.86
2022-11-20T07:00:20.496Z,79.97
2022-11-20T07:01:22.407Z,80.30
2022-11-20T07:02:23.882Z,81.00
2022-11-20T07:03:25.304Z,81.01
2022-11-20T07:04:26.706Z,80.70
2022-11-20T07:05:28.102Z,80.89
2022-11-20T07:06:30.062Z,80.29
2022-11-20T07:07:31.564Z,80.30
2022-11-20T07:08:33.618Z,80.64
2022-11-20T07:09:35.083Z,80.65
2022-11-20T07:10:36.634Z,80.14
2022-11-20T07:11:38.184Z,80.78
2022-11-20T07:12:39.624Z,80.07
2022-11-20T07:13:41.153Z,80.63
2022-11-20T07:14:42.590Z,80.42
2022-11-20T07:15:44.014Z,80.48
2022-11-20T07:16:45.439Z,79.99
2022-11-20T07:17:46.912Z,80.81
2022-11-20T07:18:50.732Z,80.63
2022-11-20T07:19:52.494Z,80.48
2022-11-20T07:20:54.142Z,80.41
2022-11-20T07:21:55.645Z,80.23
2022-11-20T07:22:58.181Z,79.75
2022-11-20T07:23:59.720Z,80.38
2022-11-20T07:25:01.643Z,80.49
2022-11-20T07:26:07.828Z,80.16
2022-11-20T07:27:09.283Z,80.46
2022-11-20T07:28:11.725Z,80.48
2022-11-20T07:29:13.215Z,80.97
2022-11-20T07:30:15.693Z,80.59
2022-11-20T07:31:19.439Z,80.96
2022-11-20T07:32:21.174Z,80.42
2022-11-20T07:33:22.659Z,80.27
2022-11-20T07:34:24.267Z,79.93
2022-11-20T07:35:26.148Z,80.75
2022-11-20T07:36:27.982Z,80.36
2022-11-20T07:37:29.445Z,80.83
2022-11-20T07:38:31.242Z,80.51
2022-11-20T07:39:32.703Z,79.78
2022-11-20T07:40:34.123Z,80.70
2022-11-20T07:41:35.563Z,80.87
2022-11-20T07:42:36.970Z,80.48
2022-11-20T07:43:41.240Z,80.48
2022-11-20T07:44:43.315Z,80.59
2022-11-20T07:45:45.079Z,80.42
2022-11-20T07:46:46.506Z,80.55
2022-11-20T07:47:48.076Z,80.61
2022-11-20T07:48:49.487Z,80.23
2022-11-20T07:49:50.887Z,80.31
2022-11-20T07:50:58.544Z,80.13
2022-11-20T07:52:04.332Z,80.61
2022-11-20T07:53:06.815Z,80.50
2022-11-20T07:54:08.257Z,80.41
2022-11-20T07:55:10.738Z,80.47
2022-11-20T07:56:12.521Z,80.44
2022-11-20T07:57:13.981Z,79.66
2022-11-20T07:58:15.409Z,79.91
2022-11-20T07:59:17.116Z,79.88
2022-11-20T08:00:18.697Z,79.66
2022-11-20T08:01:20.598Z,80.38
2022-11-20T08:02:22.085Z,80.10
2022-11-20T08:03:25.178Z,80.55
2022-11-20T08:04:27.342Z,80.46
2022-11-20T08:05:28.758Z,80.01
2022-11-20T08:06:30.665Z,80.66
2022-11-20T08:07:43.373Z,80.02
2022-11-20T08:08:45.337Z,80.69
2022-11-20T08:09:46.840Z,80.11
2022-11-20T08:10:48.569Z,80.30
2022-11-20T08:12:08.678Z,80.52
2022-11-20T08:13:28.359Z,80.47
2022-11-20T08:14:29.871Z,80.42
2022-11-20T08:15:31.675Z,80.25
2022-11-20T08:16:33.099Z,80.11
2022-11-20T08:17:34.531Z,80.05
2022-11-20T08:18:35.940Z,80.57
2022-11-20T08:19:37.348Z,80.19
2022-11-20T08:20:39.935Z,80.29
2022-11-20T08:21:41.693Z,80.15
2022-11-20T08:22:43.164Z,80.60
2022-11-20T08:23:44.585Z,80.14
2022-11-20T08:24:46.046Z,80.28
2022-11-20T08:25:51.016Z,80.37
2022-11-20T08:26:53.034Z,80.35
2022-11-20T08:27:57.860Z,79.88
2022-11-20T08:29:01.968Z,80.08
2022-11-20T08:30:03.707Z,80.05
2022-11-20T08:31:06.329Z,80.53
2022-11-20T08:32:08.127Z,80.35
2022-11-20T08:33:09.958Z,80.28
2022-11-20T08:34:14.919Z,80.26
2022-11-20T08:35:19.172Z,80.75
2022-11-20T08:36:22.166Z,79.92
2022-11-20T08:37:23.730Z,79.92
2022-11-20T08:38:25.149Z,80.55
2022-11-20T08:39:26.562Z,80.51
2022-11-20T08:40:27.993Z,80.32
2022-11-20T08:41:32.040Z,80.15
2022-11-20T08:42:33.461Z,80.58
2022-11-20T08:43:34.875Z,80.60
2022-11-20T08:44:36.314Z,80.63
2022-11-20T08:45:37.862Z,80.63
2022-11-20T08:46:48.368Z,80.76
2022-11-20T08:47:50.383Z,80.79
2022-11-20T08:48:51.982Z,80.50
2022-11-20T08:49:53.405Z,80.07
2022-11-20T08:50:58.260Z,80.67
2022-11-20T08:51:59.739Z,80.80
2022-11-20T08:53:07.334Z,80.49
2022-11-20T08:54:09.433Z,80.75
2022-11-20T08:55:11.481Z,80.18
2022-11-20T08:56:13.448Z,80.59
2022-11-20T08:57:14.866Z,80.14
2022-11-20T08:58:16.290Z,79.87
2022-11-20T08:59:36.817Z,80.03
2022-11-20T09:00:39.177Z,79.85
2022-11-20T09:01:40.987Z,79.61
2022-11-20T09:02:42.454Z,79.85
2022-11-20T09:03:43.867Z,80.11
2022-11-20T09:04:45.286Z,80.70
2022-11-20T09:05:46.754Z,80.31
2022-11-20T09:06:52.263Z,79.90
2022-11-20T09:07:57.802Z,79.92
2022-11-20T09:09:03.505Z,79.79
2022-11-20T09:10:24.999Z,80.35
2022-11-20T09:11:27.007Z,79.57
2022-11-20T09:12:28.438Z,79.55
2022-11-20T09:13:30.737Z,79.78
2022-11-20T09:14:32.506Z,79.96
2022-11-20T09:15:35.081Z,79.99
2022-11-20T09:16:36.526Z,80.31
2022-11-20T09:17:38.072Z,80.53
2022-11-20T09:18:39.805Z,80.12
2022-11-20T09:19:41.616Z,80.56
2022-11-20T09:20:43.784Z,80.27
2022-11-20T09:21:45.241Z,80.78
2022-11-20T09:22:46.770Z,80.15
2022-11-20T09:23:48.366Z,79.98
2022-11-20T09:24:50.062Z,80.42
2022-11-20T09:25:52.047Z,80.71
2022-11-20T09:26:53.585Z,80.08
2022-11-20T09:27:59.238Z,80.09
2022-11-20T09:29:00.726Z,79.67
2022-11-20T09:30:03.189Z,80.08
2022-11-20T09:31:08.812Z,80.36
2022-11-20T09:32:10.235Z,80.27
2022-11-20T09:33:11.720Z,80.59
2022-11-20T09:34:13.217Z,80.18
2022-11-20T09:35:15.526Z,79.97
2022-11-20T09:36:19.433Z,80.43
2022-11-20T09:37:20.930Z,80.13
2022-11-20T09:38:22.448Z,80.10
2022-11-20T09:39:24.110Z,79.99
2022-11-20T09:40:29.601Z,80.00
2022-11-20T09:41:53.025Z,80.17
2022-11-20T09:42:57.481Z,80.06
2022-11-20T09:44:05.072Z,80.25
2022-11-20T09:45:31.641Z,80.19
2022-11-20T09:46:51.328Z,80.05
2022-11-20T09:48:31.435Z,80.22
2022-11-20T09:49:51.666Z,80.86
2022-11-20T09:51:18.500Z,80.70
2022-11-20T09:52:32.015Z,81.33
2022-11-20T09:53:54.718Z,81.14
2022-11-20T09:54:56.402Z,80.83
2022-11-20T09:56:00.703Z,80.48
2022-11-20T09:57:14.654Z,80.84
2022-11-20T09:58:40.641Z,80.87
2022-11-20T09:59:56.142Z,80.85
2022-11-20T10:01:04.788Z,81.15
2022-11-20T10:02:18.318Z,81.43
2022-11-20T10:03:38.685Z,80.88
2022-11-20T10:04:48.745Z,80.91
2022-11-20T10:05:55.174Z,80.40
2022-11-20T10:07:30.958Z,80.61
2022-11-20T10:08:33.228Z,80.40
2022-11-20T10:09:43.874Z,80.76
2022-11-20T10:10:54.185Z,80.71
2022-11-20T10:12:20.491Z,80.80
2022-11-20T10:13:35.239Z,80.88
2022-11-20T10:14:55.116Z,80.22
2022-11-20T10:16:30.616Z,80.96
2022-11-20T10:17:54.644Z,80.38
2022-11-20T10:19:24.729Z,80.63
2022-11-20T10:20:50.761Z,80.55
2022-11-20T10:22:13.899Z,80.31
2022-11-20T10:23:25.560Z,80.24
2022-11-20T10:24:33.585Z,81.17
2022-11-20T10:25:54.230Z,80.98
2022-11-20T10:27:08.662Z,80.33
2022-11-20T10:28:28.904Z,80.74
2022-11-20T10:29:34.759Z,80.99
2022-11-20T10:30:42.486Z,80.65
2022-11-20T10:31:53.414Z,80.63
2022-11-20T10:33:20.532Z,80.63
2022-11-20T10:34:44.751Z,80.63
2022-11-20T10:35:54.300Z,80.85
2022-11-20T10:36:59.327Z,81.55
2022-11-20T10:38:04.116Z,81.72
2022-11-20T10:39:17.944Z,81.03
2022-11-20T10:40:41.740Z,81.13
2022-11-20T10:41:44.398Z,80.62
2022-11-20T10:42:55.952Z,80.22
2022-11-20T10:44:39.176Z,80.06
2022-11-20T10:45:50.247Z,80.47
2022-11-20T10:46:52.012Z,80.68
2022-11-20T10:48:22.176Z,80.43
2022-11-20T10:49:23.969Z,80.51
2022-11-20T10:50:26.598Z,81.05
2022-11-20T10:51:48.422Z,80.61
2022-11-20T10:52:57.951Z,80.77
2022-11-20T10:54:11.176Z,81.37
2022-11-20T10:55:27.215Z,80.60
2022-11-20T10:56:48.339Z,80.78
2022-11-20T10:58:02.970Z,80.90
2022-11-20T10:59:22.283Z,81.23
2022-11-20T11:00:23.953Z,80.98
2022-11-20T11:01:26.898Z,81.60
2022-11-20T11:02:53.069Z,81.18
2022-11-20T11:03:56.494Z,81.12
2022-11-20T11:04:59.527Z,81.29
2022-11-20T11:06:04.963Z,81.43
2022-11-20T11:07:10.560Z,81.13
2022-11-20T11:08:15.825Z,81.71
2022-11-20T11:09:31.031Z,81.66
2022-11-20T11:10:49.478Z,80.89
2022-11-20T11:11:51.739Z,81.97
2022-11-20T11:12:53.264Z,82.09
2022-11-20T11:14:06.337Z,81.65
2022-11-20T11:15:16.337Z,81.72
2022-11-20T11:16:23.994Z,81.25
2022-11-20T11:17:31.567Z,81.72
2022-11-20T11:18:35.335Z,81.39
2022-11-20T11:19:36.767Z,81.58
2022-11-20T11:20:39.086Z,81.23
2022-11-20T11:21:56.289Z,81.46
2022-11-20T11:22:59.961Z,82.02
2022-11-20T11:24:27.037Z,82.32
2022-11-20T11:25:26.173Z,81.80
2022-11-20T11:26:28.627Z,82.56
2022-11-20T11:27:30.088Z,81.50
2022-11-20T11:28:31.631Z,81.92
2022-11-20T11:29:33.977Z,81.80
2022-11-20T11:30:45.027Z,82.01
2022-11-20T11:31:46.469Z,81.97
2022-11-20T11:32:48.311Z,81.71
2022-11-20T11:33:49.731Z,81.64
2022-11-20T11:35:07.268Z,81.35
2022-11-20T11:36:21.239Z,81.15
2022-11-20T11:37:22.868Z,81.09
2022-11-20T11:38:31.296Z,81.33
2022-11-20T11:39:35.026Z,81.40
2022-11-20T11:40:41.767Z,80.71
2022-11-20T11:41:43.222Z,80.95
2022-11-20T11:42:47.786Z,80.48
2022-11-20T11:44:13.986Z,81.40
2022-11-20T11:45:18.349Z,81.32
2022-11-20T11:46:28.552Z,80.06
2022-11-20T11:47:38.699Z,80.71
2022-11-20T11:48:40.315Z,80.93
2022-11-20T11:49:41.729Z,81.25
2022-11-20T11:50:51.067Z,81.09
2022-11-20T11:52:11.230Z,80.86
2022-11-20T11:53:17.619Z,80.63
2022-11-20T11:54:24.643Z,80.08
2022-11-20T11:55:31.686Z,80.17
2022-11-20T11:56:34.152Z,80.03
2022-11-20T11:57:38.628Z,79.62
2022-11-20T11:58:46.685Z,80.07
2022-11-20T11:59:54.269Z,80.21
2022-11-20T12:01:03.282Z,80.01
2022-11-20T12:02:39.653Z,80.33
2022-11-20T12:03:43.712Z,79.89
2022-11-20T12:04:54.246Z,79.68
2022-11-20T12:06:02.597Z,79.99
2022-11-20T12:07:46.646Z,80.00
2022-11-20T12:08:59.393Z,79.84
2022-11-20T12:10:21.530Z,79.89
2022-11-20T12:11:31.102Z,79.96
2022-11-20T12:12:44.014Z,80.53
2022-11-20T12:14:03.060Z,79.88
2022-11-20T12:15:05.609Z,80.04
2022-11-20T12:16:14.458Z,80.71
2022-11-20T12:17:15.893Z,80.18
2022-11-20T12:18:22.835Z,80.65
2022-11-20T12:19:25.333Z,80.49
2022-11-20T12:20:37.841Z,80.32
2022-11-20T12:22:05.257Z,80.47
2022-11-20T12:23:22.333Z,81.09
2022-11-20T12:24:45.900Z,80.62
2022-11-20T12:25:54.291Z,80.59
2022-11-20T12:26:55.993Z,80.86
2022-11-20T12:28:37.865Z,80.63
2022-11-20T12:29:48.370Z,81.42
2022-11-20T12:31:27.980Z,81.35
2022-11-20T12:32:55.329Z,81.31
2022-11-20T12:34:18.566Z,81.58
2022-11-20T12:35:29.117Z,81.58
2022-11-20T12:36:51.328Z,81.94
2022-11-20T12:38:23.575Z,81.72
2022-11-20T12:39:42.334Z,82.08
2022-11-20T12:40:49.533Z,81.53
2022-11-20T12:42:23.039Z,81.61
2022-11-20T12:43:46.855Z,81.91
2022-11-20T12:45:11.845Z,81.91
2022-11-20T12:46:28.737Z,82.00
2022-11-20T12:47:40.783Z,82.04
2022-11-20T12:48:59.260Z,82.00
2022-11-20T12:50:25.005Z,81.66
2022-11-20T12:51:35.482Z,81.30
2022-11-20T12:52:47.839Z,81.96
2022-11-20T12:54:30.869Z,82.25
2022-11-20T12:55:57.598Z,81.81
2022-11-20T12:57:11.008Z,81.88
2022-11-20T12:58:15.196Z,81.91
2022-11-20T12:59:34.974Z,81.59
2022-11-20T13:00:42.534Z,81.85
2022-11-20T13:01:57.243Z,82.25
2022-11-20T13:03:20.490Z,81.82
2022-11-20T13:04:37.175Z,82.01
2022-11-20T13:05:49.070Z,82.06
2022-11-20T13:06:51.407Z,82.71
2022-11-20T13:07:54.452Z,82.12
2022-11-20T13:08:59.708Z,82.44
2022-11-20T13:10:02.065Z,82.53
2022-11-20T13:11:21.207Z,82.19
2022-11-20T13:12:34.731Z,82.52
2022-11-20T13:13:45.356Z,82.32
2022-11-20T13:14:52.842Z,82.18
2022-11-20T13:16:08.020Z,81.94
2022-11-20T13:17:19.921Z,82.63
2022-11-20T13:18:21.758Z,82.11
2022-11-20T13:19:23.821Z,81.87
2022-11-20T13:20:25.724Z,81.97
2022-11-20T13:21:40.158Z,82.01
2022-11-20T13:22:46.979Z,81.64
2022-11-20T13:23:48.723Z,81.52
2022-11-20T13:24:52.986Z,81.80
2022-11-20T13:26:06.708Z,81.40
2022-11-20T13:27:14.251Z,81.67
2022-11-20T13:28:15.624Z,82.26
2022-11-20T13:29:20.266Z,82.17
2022-11-20T13:30:24.104Z,81.99
2022-11-20T13:31:31.709Z,81.74
2022-11-20T13:32:33.680Z,81.82
2022-11-20T13:33:37.969Z,81.59
2022-11-20T13:34:39.614Z,81.76
2022-11-20T13:35:44.096Z,81.68
2022-11-20T13:36:53.892Z,81.60
2022-11-20T13:38:07.225Z,81.36
2022-11-20T13:39:10.126Z,81.66
2022-11-20T13:40:12.458Z,81.47
2022-11-20T13:41:36.457Z,81.71
2022-11-20T13:42:44.123Z,82.41
2022-11-20T13:43:45.646Z,83.30
2022-11-20T13:44:56.086Z,83.53
2022-11-20T13:45:58.745Z,83.23
2022-11-20T13:47:00.198Z,82.75
2022-11-20T13:48:19.979Z,82.36
2022-11-20T13:49:33.453Z,81.85
2022-11-20T13:50:38.029Z,81.58
2022-11-20T13:51:47.764Z,81.56
2022-11-20T13:53:01.745Z,81.64
2022-11-20T13:54:03.112Z,81.95
2022-11-20T13:55:38.563Z,82.07
2022-11-20T13:57:13.873Z,82.11
2022-11-20T13:58:40.262Z,82.18
2022-11-20T13:59:55.295Z,82.24
2022-11-20T14:01:09.126Z,82.33
2022-11-20T14:02:15.100Z,81.87
2022-11-20T14:03:44.164Z,82.13
2022-11-20T14:04:49.275Z,82.25
2022-11-20T14:06:01.087Z,82.40
2022-11-20T14:07:06.410Z,82.07